createdAt,value
2019-01-25T00:02:29.578Z,69.63
2019-01-25T00:07:34.242Z,69.57
2019-01-25T00:12:39.873Z,75.37
2019-01-25T00:17:45.677Z,75.77
2019-01-25T00:22:50.815Z,81.77
2019-01-25T00:27:56.643Z,73.87
2019-01-25T00:33:01.779Z,72.10
2019-01-25T00:38:07.042Z,75.17
2019-01-25T00:43:12.440Z,75.23
2019-01-25T00:48:17.820Z,73.57
2019-01-25T00:53:23.235Z,74.60
2019-01-25T00:58:29.062Z,70.90
2019-01-25T01:03:35.364Z,73.40
2019-01-25T01:08:42.220Z,75.37
2019-01-25T01:13:47.501Z,73.27
2019-01-25T01:18:53.655Z,72.80
2019-01-25T01:23:58.926Z,77.13
2019-01-25T01:29:04.713Z,76.93
2019-01-25T01:34:38.228Z,70.30
2019-01-25T01:39:47.527Z,70.80
2019-01-25T01:44:54.015Z,66.90
2019-01-25T01:50:01.478Z,69.37
2019-01-25T01:55:07.571Z,72.30
2019-01-25T02:00:22.206Z,66.53
2019-01-25T02:05:28.439Z,66.47
2019-01-25T02:10:35.274Z,64.87
2019-01-25T02:15:40.586Z,69.23
2019-01-25T02:20:46.776Z,65.70
2019-01-25T02:25:52.277Z,66.17
2019-01-25T02:30:57.719Z,67.33
2019-01-25T02:36:02.816Z,68.10
2019-01-25T02:41:07.895Z,65.93
2019-01-25T02:46:13.240Z,68.10
2019-01-25T02:51:18.384Z,64.97
2019-01-25T02:56:23.553Z,67.10
2019-01-25T03:01:29.116Z,69.93
2019-01-25T03:06:34.508Z,70.10
2019-01-25T03:11:39.617Z,82.07
2019-01-25T03:16:44.958Z,72.83
2019-01-25T03:21:50.319Z,74.63
2019-01-25T03:26:55.544Z,72.27
2019-01-25T03:32:00.933Z,79.77
2019-01-25T03:37:06.292Z,77.47
2019-01-25T03:42:11.422Z,78.97
2019-01-25T03:47:16.731Z,80.50
2019-01-25T03:52:21.906Z,81.67
2019-01-25T03:57:26.978Z,72.57
2019-01-25T04:02:32.176Z,74.93
2019-01-25T04:07:37.576Z,72.23
2019-01-25T04:12:42.920Z,72.63
2019-01-25T04:17:48.232Z,74.10
2019-01-25T04:22:53.816Z,69.80
2019-01-25T04:27:59.030Z,69.07
2019-01-25T04:33:04.245Z,72.43
2019-01-25T04:38:09.866Z,75.93
2019-01-25T04:43:14.905Z,73.70
2019-01-25T04:48:20.690Z,69.87
2019-01-25T04:53:26.430Z,70.97
2019-01-25T04:58:31.532Z,70.03
2019-01-25T05:03:38.664Z,69.73
2019-01-25T05:08:43.891Z,68.13
2019-01-25T05:13:49.195Z,73.10
2019-01-25T05:18:55.310Z,69.37
2019-01-25T05:24:09.923Z,68.70
2019-01-25T05:29:17.286Z,67.63
2019-01-25T05:34:22.753Z,75.00
2019-01-25T05:39:28.522Z,67.23
2019-01-25T05:44:34.672Z,73.10
2019-01-25T05:49:40.032Z,77.97
2019-01-25T05:54:45.635Z,71.20
2019-01-25T05:59:51.301Z,75.20
2019-01-25T06:05:04.220Z,69.60
2019-01-25T06:10:10.100Z,69.80
2019-01-25T06:15:15.589Z,70.50
2019-01-25T06:20:24.642Z,67.67
2019-01-25T06:25:37.904Z,65.77
2019-01-25T06:30:53.110Z,67.27
2019-01-25T06:36:00.430Z,70.67
2019-01-25T06:41:06.848Z,72.07
2019-01-25T06:46:12.730Z,77.60
2019-01-25T06:51:20.450Z,75.43
2019-01-25T06:56:27.099Z,70.90
2019-01-25T07:02:07.928Z,73.70
2019-01-25T07:07:34.336Z,71.90
2019-01-25T07:12:40.744Z,70.83
2019-01-25T07:17:46.400Z,65.83
2019-01-25T07:22:51.727Z,66.93
2019-01-25T07:27:58.753Z,68.93
2019-01-25T07:33:05.149Z,67.70
2019-01-25T07:38:11.936Z,64.37
2019-01-25T07:43:22.280Z,67.90
2019-01-25T07:48:30.062Z,68.07
2019-01-25T07:53:43.995Z,65.87
2019-01-25T07:58:57.253Z,65.57
2019-01-25T08:04:09.215Z,67.00
2019-01-25T08:09:14.869Z,67.00
2019-01-25T08:14:30.330Z,70.97
2019-01-25T08:19:40.808Z,68.10
2019-01-25T08:24:47.580Z,70.33
2019-01-25T08:29:52.975Z,66.13
2019-01-25T08:35:00.873Z,66.80
2019-01-25T08:40:11.949Z,67.90
2019-01-25T08:45:17.609Z,65.23
2019-01-25T08:50:23.304Z,69.33
2019-01-25T08:55:41.811Z,67.57
2019-01-25T09:00:47.110Z,68.03
2019-01-25T09:05:53.610Z,69.03
2019-01-25T09:10:59.240Z,65.83
2019-01-25T09:16:04.630Z,65.00
2019-01-25T09:21:11.435Z,67.17
2019-01-25T09:26:19.171Z,65.47
2019-01-25T09:31:34.528Z,60.57
2019-01-25T09:37:11.850Z,64.37
2019-01-25T09:42:40.058Z,62.73
2019-01-25T09:48:08.608Z,63.27
2019-01-25T09:53:30.822Z,69.10
2019-01-25T09:58:41.373Z,62.07
2019-01-25T10:03:46.720Z,60.97
2019-01-25T10:08:57.045Z,56.73
2019-01-25T10:14:02.968Z,64.17
2019-01-25T10:19:08.121Z,59.40
2019-01-25T10:24:14.602Z,64.40
2019-01-25T10:29:19.973Z,65.90
2019-01-25T10:34:25.296Z,62.13
2019-01-25T10:39:33.116Z,62.17
2019-01-25T10:44:39.050Z,60.23
2019-01-25T10:49:46.172Z,62.13
2019-01-25T10:55:08.524Z,64.77
2019-01-25T11:00:27.273Z,59.40
2019-01-25T11:05:35.886Z,58.67
2019-01-25T11:10:47.545Z,57.03
2019-01-25T11:15:58.252Z,56.37
2019-01-25T11:21:04.066Z,59.07
2019-01-25T11:26:12.300Z,86.47
2019-01-25T11:31:21.890Z,64.33
2019-01-25T11:37:00.020Z,57.97
2019-01-25T11:42:09.006Z,55.13
2019-01-25T11:47:18.873Z,57.50
2019-01-25T11:52:27.156Z,58.10
2019-01-25T11:57:45.697Z,56.27
2019-01-25T12:02:57.108Z,62.40
2019-01-25T12:08:03.714Z,59.40
2019-01-25T12:13:16.130Z,59.17
2019-01-25T12:18:21.744Z,63.10
2019-01-25T12:23:29.402Z,60.03
2019-01-25T12:28:59.232Z,58.10
2019-01-25T12:34:13.088Z,55.77
2019-01-25T12:39:18.845Z,60.20
2019-01-25T12:44:27.636Z,63.53
2019-01-25T12:49:33.304Z,61.80
2019-01-25T12:54:40.345Z,63.97
2019-01-25T13:00:15.560Z,62.33
2019-01-25T13:05:24.650Z,63.10
2019-01-25T13:10:30.384Z,60.23
2019-01-25T13:15:40.968Z,60.50
2019-01-25T13:20:46.943Z,61.67
2019-01-25T13:26:00.730Z,63.53
2019-01-25T13:31:11.976Z,62.90
2019-01-25T13:36:24.152Z,60.57
2019-01-25T13:41:30.182Z,60.97
2019-01-25T13:46:35.660Z,64.10
2019-01-25T13:51:52.611Z,61.93
2019-01-25T13:56:58.443Z,64.20
2019-01-25T14:02:04.043Z,65.90
2019-01-25T14:07:29.130Z,64.17
2019-01-25T14:12:39.268Z,63.77
2019-01-25T14:17:45.468Z,62.47
2019-01-25T14:22:50.803Z,65.53
2019-01-25T14:28:01.082Z,64.77
2019-01-25T14:33:07.564Z,62.30
2019-01-25T14:38:19.626Z,62.40
2019-01-25T14:43:25.768Z,64.13
2019-01-25T14:48:31.093Z,65.03
2019-01-25T14:53:36.396Z,61.27
2019-01-25T14:58:41.790Z,74.00
2019-01-25T15:03:48.963Z,68.87
2019-01-25T15:08:54.978Z,70.03
2019-01-25T15:14:02.472Z,63.43
2019-01-25T15:19:10.073Z,64.27
2019-01-25T15:24:18.276Z,71.23
2019-01-25T15:29:23.745Z,70.37
2019-01-25T15:34:29.173Z,66.40
2019-01-25T15:39:39.556Z,71.90
2019-01-25T15:44:46.772Z,67.17
2019-01-25T15:49:52.380Z,65.10
2019-01-25T15:54:58.039Z,70.10
2019-01-25T16:00:03.874Z,68.83
2019-01-25T16:05:11.216Z,71.23
2019-01-25T16:10:18.831Z,66.77
2019-01-25T16:15:32.954Z,70.97
2019-01-25T16:20:40.301Z,72.90
2019-01-25T16:25:45.531Z,70.77
2019-01-25T16:30:51.023Z,65.13
2019-01-25T16:35:59.316Z,67.10
2019-01-25T16:41:04.841Z,68.27
2019-01-25T16:46:10.481Z,66.80
2019-01-25T16:51:15.856Z,64.93
2019-01-25T16:56:21.170Z,66.47
2019-01-25T17:01:28.352Z,61.47
2019-01-25T17:06:35.589Z,64.23
2019-01-25T17:11:40.870Z,62.87
2019-01-25T17:17:19.380Z,67.00
2019-01-25T17:28:45.849Z,63.93
2019-01-25T17:34:19.987Z,68.07
2019-01-25T17:39:42.390Z,62.60
2019-01-25T17:44:50.965Z,61.00
2019-01-25T17:49:59.088Z,69.00
2019-01-25T17:55:17.819Z,65.03
2019-01-25T18:00:31.900Z,61.57
2019-01-25T18:05:40.091Z,61.93
2019-01-25T18:10:52.318Z,89.83
2019-01-25T18:16:17.519Z,106.70
2019-01-25T18:21:23.521Z,66.00
2019-01-25T18:26:30.436Z,64.07
2019-01-25T18:31:41.567Z,61.07
2019-01-25T18:36:53.821Z,61.87
2019-01-25T18:42:00.067Z,57.50
2019-01-25T18:47:15.958Z,57.63
2019-01-25T18:52:25.482Z,56.93
2019-01-25T18:57:32.825Z,54.57
2019-01-25T19:02:49.504Z,55.47
2019-01-25T19:07:59.055Z,55.17
2019-01-25T19:13:10.758Z,60.83
2019-01-25T19:18:28.614Z,59.43
2019-01-25T19:23:51.962Z,62.30
2019-01-25T19:29:07.221Z,56.93
2019-01-25T19:34:17.990Z,53.27
2019-01-25T19:39:36.674Z,58.37
2019-01-25T19:45:03.662Z,62.03
2019-01-25T19:50:21.602Z,58.87
2019-01-25T19:55:38.495Z,58.60
2019-01-25T20:00:56.779Z,59.20
2019-01-25T20:06:12.699Z,59.83
2019-01-25T20:11:20.483Z,57.30
2019-01-25T20:16:36.501Z,59.40
2019-01-25T20:21:43.921Z,55.17
2019-01-25T20:26:51.165Z,55.83
2019-01-25T20:31:59.284Z,57.30
2019-01-25T20:37:06.559Z,51.80
2019-01-25T20:42:14.487Z,54.53
2019-01-25T20:47:19.866Z,53.90
2019-01-25T20:52:26.975Z,56.37
2019-01-25T20:57:32.329Z,55.57
2019-01-25T21:02:38.287Z,63.97
2019-01-25T21:07:48.685Z,80.97
2019-01-25T21:12:54.349Z,60.67
2019-01-25T21:18:13.040Z,59.10
2019-01-25T21:23:18.297Z,54.13
2019-01-25T21:28:23.683Z,58.00
2019-01-25T21:33:28.761Z,58.57
2019-01-25T21:38:39.239Z,56.73
2019-01-25T21:43:44.553Z,60.00
2019-01-25T21:48:51.577Z,60.10
2019-01-25T21:53:59.191Z,56.40
2019-01-25T21:59:04.914Z,61.17
2019-01-25T22:04:12.253Z,59.33
2019-01-25T22:09:17.667Z,53.13
2019-01-25T22:14:22.988Z,55.50
2019-01-25T22:19:29.460Z,54.63
2019-01-25T22:24:35.381Z,54.20
2019-01-25T22:29:40.820Z,55.47
2019-01-25T22:34:46.935Z,55.80
2019-01-25T22:39:52.533Z,55.50
2019-01-25T22:44:57.639Z,55.17
2019-01-25T22:50:02.646Z,53.40
2019-01-25T22:55:10.512Z,56.80
2019-01-25T23:01:01.231Z,51.03
2019-01-25T23:06:34.527Z,55.03
2019-01-25T23:11:39.878Z,53.23
2019-01-25T23:16:45.500Z,56.67
2019-01-25T23:21:51.924Z,58.07
2019-01-25T23:27:03.092Z,56.97
2019-01-25T23:32:08.846Z,60.20
2019-01-25T23:37:14.751Z,54.53
2019-01-25T23:42:20.199Z,58.13
2019-01-25T23:47:25.489Z,60.43
2019-01-25T23:52:30.990Z,57.50
2019-01-25T23:57:36.305Z,56.47
